sensor_id;sensor_type;location;lat;lon;timestamp;pressure;altitude;pressure_sealevel;temperature;humidity
18900;BME280;9582;52.018;6.306;2022-07-29T00:01:17;101592.91;;;16.35;69.05
18900;BME280;9582;52.018;6.306;2022-07-29T00:03:44;101586.03;;;16.32;68.83
18900;BME280;9582;52.018;6.306;2022-07-29T00:06:10;101582.81;;;16.27;69.46
18900;BME280;9582;52.018;6.306;2022-07-29T00:08:37;101581.78;;;16.30;69.12
18900;BME280;9582;52.018;6.306;2022-07-29T00:11:03;101593.88;;;16.34;69.50
18900;BME280;9582;52.018;6.306;2022-07-29T00:13:30;101587.13;;;16.44;68.89
18900;BME280;9582;52.018;6.306;2022-07-29T00:15:58;101582.00;;;16.72;68.71
18900;BME280;9582;52.018;6.306;2022-07-29T00:18:25;101582.22;;;16.53;68.65
18900;BME280;9582;52.018;6.306;2022-07-29T00:20:51;101574.94;;;16.41;69.08
18900;BME280;9582;52.018;6.306;2022-07-29T00:23:17;101572.59;;;16.37;69.15
18900;BME280;9582;52.018;6.306;2022-07-29T00:25:44;101576.38;;;16.47;69.02
18900;BME280;9582;52.018;6.306;2022-07-29T00:28:10;101571.00;;;16.48;68.67
18900;BME280;9582;52.018;6.306;2022-07-29T00:30:37;101568.72;;;16.58;68.64
18900;BME280;9582;52.018;6.306;2022-07-29T00:33:05;101567.22;;;16.54;68.66
18900;BME280;9582;52.018;6.306;2022-07-29T00:35:31;101561.94;;;16.38;68.87
18900;BME280;9582;52.018;6.306;2022-07-29T00:38:13;101561.94;;;16.54;68.79
18900;BME280;9582;52.018;6.306;2022-07-29T00:40:40;101560.28;;;16.51;68.95
18900;BME280;9582;52.018;6.306;2022-07-29T00:43:07;101553.06;;;16.39;69.54
18900;BME280;9582;52.018;6.306;2022-07-29T00:45:33;101556.91;;;16.34;69.81
18900;BME280;9582;52.018;6.306;2022-07-29T00:48:00;101548.16;;;16.33;69.30
18900;BME280;9582;52.018;6.306;2022-07-29T00:50:29;101547.13;;;16.20;69.95
18900;BME280;9582;52.018;6.306;2022-07-29T00:52:55;101549.00;;;16.18;70.47
18900;BME280;9582;52.018;6.306;2022-07-29T00:55:22;101547.81;;;16.24;70.46
18900;BME280;9582;52.018;6.306;2022-07-29T00:57:48;101551.91;;;16.13;70.79
18900;BME280;9582;52.018;6.306;2022-07-29T01:00:17;101544.25;;;16.25;70.22
18900;BME280;9582;52.018;6.306;2022-07-29T01:02:44;101543.72;;;16.18;70.79
18900;BME280;9582;52.018;6.306;2022-07-29T01:05:15;101545.78;;;16.13;71.33
18900;BME280;9582;52.018;6.306;2022-07-29T01:07:45;101539.13;;;16.06;71.22
18900;BME280;9582;52.018;6.306;2022-07-29T01:10:12;101540.25;;;16.02;71.78
18900;BME280;9582;52.018;6.306;2022-07-29T01:12:41;101535.56;;;16.07;71.50
18900;BME280;9582;52.018;6.306;2022-07-29T01:15:09;101536.25;;;16.10;71.39
18900;BME280;9582;52.018;6.306;2022-07-29T01:17:40;101541.84;;;16.20;71.35
18900;BME280;9582;52.018;6.306;2022-07-29T01:20:14;101532.31;;;16.17;71.36
18900;BME280;9582;52.018;6.306;2022-07-29T01:23:11;101525.69;;;16.10;72.14
18900;BME280;9582;52.018;6.306;2022-07-29T01:25:47;101523.31;;;16.06;72.02
18900;BME280;9582;52.018;6.306;2022-07-29T01:28:39;101517.88;;;15.93;72.92
18900;BME280;9582;52.018;6.306;2022-07-29T01:31:11;101516.41;;;16.03;71.94
18900;BME280;9582;52.018;6.306;2022-07-29T01:33:43;101514.66;;;15.88;72.54
18900;BME280;9582;52.018;6.306;2022-07-29T01:36:19;101516.09;;;15.94;72.39
18900;BME280;9582;52.018;6.306;2022-07-29T01:38:54;101522.13;;;15.96;72.35
18900;BME280;9582;52.018;6.306;2022-07-29T01:41:26;101523.84;;;15.97;72.19
18900;BME280;9582;52.018;6.306;2022-07-29T01:43:58;101516.78;;;15.97;71.86
18900;BME280;9582;52.018;6.306;2022-07-29T01:46:29;101513.47;;;15.94;72.11
18900;BME280;9582;52.018;6.306;2022-07-29T01:49:01;101511.16;;;15.88;72.21
18900;BME280;9582;52.018;6.306;2022-07-29T01:51:31;101511.16;;;15.88;72.21
18900;BME280;9582;52.018;6.306;2022-07-29T01:54:04;101508.78;;;15.83;72.51
18900;BME280;9582;52.018;6.306;2022-07-29T01:56:32;101504.09;;;15.88;72.62
18900;BME280;9582;52.018;6.306;2022-07-29T01:59:01;101506.41;;;15.94;72.08
18900;BME280;9582;52.018;6.306;2022-07-29T02:01:30;101504.59;;;15.95;71.83
18900;BME280;9582;52.018;6.306;2022-07-29T02:03:58;101510.91;;;16.08;71.52
18900;BME280;9582;52.018;6.306;2022-07-29T02:06:26;101505.69;;;16.06;71.35
18900;BME280;9582;52.018;6.306;2022-07-29T02:08:55;101504.00;;;16.05;71.72
18900;BME280;9582;52.018;6.306;2022-07-29T02:11:24;101504.41;;;15.98;71.37
18900;BME280;9582;52.018;6.306;2022-07-29T02:13:52;101508.78;;;15.83;71.83
18900;BME280;9582;52.018;6.306;2022-07-29T02:16:21;101504.28;;;15.85;71.82
18900;BME280;9582;52.018;6.306;2022-07-29T02:18:50;101505.78;;;15.89;71.67
18900;BME280;9582;52.018;6.306;2022-07-29T02:21:21;101503.25;;;15.88;71.50
18900;BME280;9582;52.018;6.306;2022-07-29T02:23:49;101508.41;;;15.89;71.49
18900;BME280;9582;52.018;6.306;2022-07-29T02:26:19;101511.56;;;15.96;70.96
18900;BME280;9582;52.018;6.306;2022-07-29T02:28:47;101518.56;;;15.97;70.62
18900;BME280;9582;52.018;6.306;2022-07-29T02:31:15;101518.56;;;15.97;70.44
18900;BME280;9582;52.018;6.306;2022-07-29T02:33:45;101525.34;;;16.01;70.76
18900;BME280;9582;52.018;6.306;2022-07-29T02:36:13;101540.31;;;16.00;70.58
18900;BME280;9582;52.018;6.306;2022-07-29T02:38:41;101543.41;;;16.08;70.01
18900;BME280;9582;52.018;6.306;2022-07-29T02:41:19;101551.72;;;16.01;70.80
18900;BME280;9582;52.018;6.306;2022-07-29T02:43:48;101548.66;;;15.93;71.70
18900;BME280;9582;52.018;6.306;2022-07-29T02:46:20;101549.19;;;15.99;71.71
18900;BME280;9582;52.018;6.306;2022-07-29T02:48:55;101537.25;;;15.92;72.58
18900;BME280;9582;52.018;6.306;2022-07-29T02:51:25;101537.59;;;15.86;72.80
18900;BME280;9582;52.018;6.306;2022-07-29T02:53:56;101537.59;;;15.86;73.94
18900;BME280;9582;52.018;6.306;2022-07-29T02:56:27;101548.94;;;15.88;73.37
18900;BME280;9582;52.018;6.306;2022-07-29T02:58:55;101565.53;;;15.90;73.12
18900;BME280;9582;52.018;6.306;2022-07-29T03:01:23;101568.59;;;15.98;72.58
18900;BME280;9582;52.018;6.306;2022-07-29T03:03:54;101568.75;;;15.95;72.82
18900;BME280;9582;52.018;6.306;2022-07-29T03:06:23;101557.28;;;15.96;72.71
18900;BME280;9582;52.018;6.306;2022-07-29T03:08:53;101557.00;;;16.01;72.66
18900;BME280;9582;52.018;6.306;2022-07-29T03:11:20;101547.41;;;16.00;72.75
18900;BME280;9582;52.018;6.306;2022-07-29T03:13:47;101542.03;;;16.01;72.66
18900;BME280;9582;52.018;6.306;2022-07-29T03:16:15;101547.22;;;15.87;72.77
18900;BME280;9582;52.018;6.306;2022-07-29T03:18:42;101561.28;;;15.88;72.90
18900;BME280;9582;52.018;6.306;2022-07-29T03:21:10;101546.72;;;15.96;73.07
18900;BME280;9582;52.018;6.306;2022-07-29T03:23:36;101550.63;;;15.89;73.21
18900;BME280;9582;52.018;6.306;2022-07-29T03:26:03;101546.78;;;15.79;73.32
18900;BME280;9582;52.018;6.306;2022-07-29T03:28:30;101537.44;;;15.89;74.03
18900;BME280;9582;52.018;6.306;2022-07-29T03:30:56;101537.88;;;15.66;74.46
18900;BME280;9582;52.018;6.306;2022-07-29T03:33:23;101532.19;;;15.41;75.72
18900;BME280;9582;52.018;6.306;2022-07-29T03:35:49;101533.97;;;15.40;76.10
18900;BME280;9582;52.018;6.306;2022-07-29T03:38:17;101538.84;;;15.48;75.24
18900;BME280;9582;52.018;6.306;2022-07-29T03:40:49;101530.22;;;15.44;75.52
18900;BME280;9582;52.018;6.306;2022-07-29T03:43:18;101518.34;;;15.53;75.07
18900;BME280;9582;52.018;6.306;2022-07-29T03:45:47;101520.06;;;15.54;75.16
18900;BME280;9582;52.018;6.306;2022-07-29T03:48:17;101516.19;;;15.44;75.44
18900;BME280;9582;52.018;6.306;2022-07-29T03:50:45;101514.41;;;15.44;75.62
18900;BME280;9582;52.018;6.306;2022-07-29T03:53:12;101510.25;;;15.40;75.36
18900;BME280;9582;52.018;6.306;2022-07-29T03:55:43;101506.28;;;15.49;75.44
18900;BME280;9582;52.018;6.306;2022-07-29T03:58:12;101510.16;;;15.42;75.61
18900;BME280;9582;52.018;6.306;2022-07-29T04:00:39;101508.63;;;15.38;76.36
18900;BME280;9582;52.018;6.306;2022-07-29T04:03:06;101509.66;;;15.35;76.50
18900;BME280;9582;52.018;6.306;2022-07-29T04:05:33;101501.03;;;15.32;76.60
18900;BME280;9582;52.018;6.306;2022-07-29T04:07:59;101503.09;;;15.27;77.58
18900;BME280;9582;52.018;6.306;2022-07-29T04:10:26;101507.13;;;15.17;79.26
18900;BME280;9582;52.018;6.306;2022-07-29T04:12:54;101503.25;;;15.24;78.46
18900;BME280;9582;52.018;6.306;2022-07-29T04:15:21;101510.22;;;15.08;80.48
18900;BME280;9582;52.018;6.306;2022-07-29T04:17:47;101495.25;;;14.92;81.16
18900;BME280;9582;52.018;6.306;2022-07-29T04:20:14;101494.53;;;14.89;83.78
18900;BME280;9582;52.018;6.306;2022-07-29T04:22:40;101501.59;;;14.88;83.25
18900;BME280;9582;52.018;6.306;2022-07-29T04:25:08;101506.78;;;14.90;83.06
18900;BME280;9582;52.018;6.306;2022-07-29T04:27:34;101500.88;;;14.85;83.02
18900;BME280;9582;52.018;6.306;2022-07-29T04:30:22;101500.53;;;14.75;84.07
18900;BME280;9582;52.018;6.306;2022-07-29T04:32:49;101499.66;;;14.75;85.17
18900;BME280;9582;52.018;6.306;2022-07-29T04:35:15;101496.34;;;14.71;85.40
18900;BME280;9582;52.018;6.306;2022-07-29T04:37:42;101497.50;;;14.66;85.33
18900;BME280;9582;52.018;6.306;2022-07-29T04:40:09;101484.75;;;14.58;85.58
18900;BME280;9582;52.018;6.306;2022-07-29T04:42:35;101486.34;;;14.61;85.82
18900;BME280;9582;52.018;6.306;2022-07-29T04:45:02;101511.50;;;14.83;83.81
18900;BME280;9582;52.018;6.306;2022-07-29T04:47:30;101507.25;;;14.81;83.36
18900;BME280;9582;52.018;6.306;2022-07-29T04:49:57;101497.19;;;14.89;83.21
18900;BME280;9582;52.018;6.306;2022-07-29T04:52:23;101486.56;;;14.73;85.68
18900;BME280;9582;52.018;6.306;2022-07-29T04:54:50;101493.41;;;14.60;85.10
18900;BME280;9582;52.018;6.306;2022-07-29T04:57:16;101502.53;;;14.53;85.13
18900;BME280;9582;52.018;6.306;2022-07-29T04:59:43;101501.22;;;14.62;84.75
18900;BME280;9582;52.018;6.306;2022-07-29T05:02:09;101493.25;;;14.63;85.39
18900;BME280;9582;52.018;6.306;2022-07-29T05:04:37;101494.41;;;14.58;85.81
18900;BME280;9582;52.018;6.306;2022-07-29T05:07:04;101496.94;;;14.59;86.59
18900;BME280;9582;52.018;6.306;2022-07-29T05:09:30;101494.00;;;14.65;86.10
18900;BME280;9582;52.018;6.306;2022-07-29T05:11:57;101499.28;;;14.65;86.14
18900;BME280;9582;52.018;6.306;2022-07-29T05:14:23;101498.34;;;14.66;85.75
18900;BME280;9582;52.018;6.306;2022-07-29T05:16:50;101508.19;;;14.63;85.17
18900;BME280;9582;52.018;6.306;2022-07-29T05:19:18;101514.00;;;14.69;85.45
18900;BME280;9582;52.018;6.306;2022-07-29T05:21:45;101528.53;;;14.59;85.85
18900;BME280;9582;52.018;6.306;2022-07-29T05:24:13;101546.13;;;14.76;85.70
18900;BME280;9582;52.018;6.306;2022-07-29T05:26:39;101572.69;;;14.88;85.88
18900;BME280;9582;52.018;6.306;2022-07-29T05:29:06;101566.97;;;14.97;86.03
18900;BME280;9582;52.018;6.306;2022-07-29T05:31:32;101562.31;;;15.02;85.15
18900;BME280;9582;52.018;6.306;2022-07-29T05:33:59;101561.44;;;15.02;85.56
18900;BME280;9582;52.018;6.306;2022-07-29T05:36:26;101562.91;;;15.08;85.17
18900;BME280;9582;52.018;6.306;2022-07-29T05:38:54;101564.06;;;15.19;84.35
18900;BME280;9582;52.018;6.306;2022-07-29T05:41:20;101568.41;;;15.20;84.76
18900;BME280;9582;52.018;6.306;2022-07-29T05:43:47;101555.69;;;15.28;84.50
18900;BME280;9582;52.018;6.306;2022-07-29T05:46:13;101555.22;;;15.20;84.38
18900;BME280;9582;52.018;6.306;2022-07-29T05:48:40;101562.44;;;15.17;84.57
18900;BME280;9582;52.018;6.306;2022-07-29T05:51:07;101558.56;;;15.24;84.73
18900;BME280;9582;52.018;6.306;2022-07-29T05:53:33;101565.00;;;15.18;84.77
18900;BME280;9582;52.018;6.306;2022-07-29T05:56:04;101564.31;;;15.15;84.59
18900;BME280;9582;52.018;6.306;2022-07-29T05:58:30;101569.88;;;15.26;84.24
18900;BME280;9582;52.018;6.306;2022-07-29T06:00:57;101562.44;;;15.17;85.04
18900;BME280;9582;52.018;6.306;2022-07-29T06:03:24;101557.00;;;15.20;85.79
18900;BME280;9582;52.018;6.306;2022-07-29T06:05:50;101554.63;;;15.15;85.31
18900;BME280;9582;52.018;6.306;2022-07-29T06:08:17;101540.66;;;15.13;84.83
18900;BME280;9582;52.018;6.306;2022-07-29T06:10:44;101532.88;;;14.94;85.99
18900;BME280;9582;52.018;6.306;2022-07-29T06:13:12;101535.97;;;15.02;85.88
18900;BME280;9582;52.018;6.306;2022-07-29T06:15:41;101536.06;;;15.01;86.25
18900;BME280;9582;52.018;6.306;2022-07-29T06:18:08;101538.06;;;14.96;86.44
18900;BME280;9582;52.018;6.306;2022-07-29T06:20:35;101532.16;;;15.08;85.89
18900;BME280;9582;52.018;6.306;2022-07-29T06:23:02;101530.09;;;14.97;86.02
18900;BME280;9582;52.018;6.306;2022-07-29T06:25:29;101529.22;;;14.97;86.08
18900;BME280;9582;52.018;6.306;2022-07-29T06:27:57;101530.25;;;14.94;85.39
18900;BME280;9582;52.018;6.306;2022-07-29T06:30:25;101520.91;;;15.04;84.91
18900;BME280;9582;52.018;6.306;2022-07-29T06:32:52;101526.75;;;14.94;85.43
18900;BME280;9582;52.018;6.306;2022-07-29T06:35:18;101526.34;;;15.01;85.44
18900;BME280;9582;52.018;6.306;2022-07-29T06:37:45;101520.03;;;14.88;85.20
18900;BME280;9582;52.018;6.306;2022-07-29T06:40:11;101522.19;;;14.97;85.72
18900;BME280;9582;52.018;6.306;2022-07-29T06:42:55;101524.97;;;14.94;84.80
18900;BME280;9582;52.018;6.306;2022-07-29T06:45:22;101521.72;;;15.07;84.26
18900;BME280;9582;52.018;6.306;2022-07-29T06:47:50;101525.56;;;15.17;83.71
18900;BME280;9582;52.018;6.306;2022-07-29T06:50:18;101527.63;;;15.27;83.88
18900;BME280;9582;52.018;6.306;2022-07-29T06:52:45;101529.72;;;15.38;82.72
18900;BME280;9582;52.018;6.306;2022-07-29T06:55:11;101521.97;;;15.35;83.53
18900;BME280;9582;52.018;6.306;2022-07-29T06:57:38;101524.75;;;15.32;83.05
18900;BME280;9582;52.018;6.306;2022-07-29T07:00:05;101519.31;;;15.35;83.11
18900;BME280;9582;52.018;6.306;2022-07-29T07:02:33;101530.72;;;15.35;82.93
18900;BME280;9582;52.018;6.306;2022-07-29T07:05:01;101531.72;;;15.33;82.93
18900;BME280;9582;52.018;6.306;2022-07-29T07:07:28;101536.66;;;15.39;82.11
18900;BME280;9582;52.018;6.306;2022-07-29T07:09:54;101528.56;;;15.59;82.48
18900;BME280;9582;52.018;6.306;2022-07-29T07:12:21;101530.88;;;15.49;82.83
18900;BME280;9582;52.018;6.306;2022-07-29T07:14:47;101537.34;;;15.59;83.54
18900;BME280;9582;52.018;6.306;2022-07-29T07:17:14;101544.75;;;15.69;83.12
18900;BME280;9582;52.018;6.306;2022-07-29T07:19:40;101543.31;;;15.79;82.25
18900;BME280;9582;52.018;6.306;2022-07-29T07:22:08;101540.69;;;15.94;81.29
18900;BME280;9582;52.018;6.306;2022-07-29T07:24:35;101534.47;;;15.95;81.30
18900;BME280;9582;52.018;6.306;2022-07-29T07:27:01;101531.81;;;15.95;81.69
18900;BME280;9582;52.018;6.306;2022-07-29T07:29:28;101527.31;;;15.82;81.23
18900;BME280;9582;52.018;6.306;2022-07-29T07:31:54;101523.16;;;15.93;81.01
18900;BME280;9582;52.018;6.306;2022-07-29T07:34:21;101526.13;;;15.87;81.49
18900;BME280;9582;52.018;6.306;2022-07-29T07:36:47;101521.88;;;15.85;80.97
18900;BME280;9582;52.018;6.306;2022-07-29T07:39:15;101532.31;;;16.33;79.72
18900;BME280;9582;52.018;6.306;2022-07-29T07:41:41;101522.09;;;16.27;79.83
18900;BME280;9582;52.018;6.306;2022-07-29T07:44:08;101530.88;;;16.28;80.41
18900;BME280;9582;52.018;6.306;2022-07-29T07:46:34;101527.81;;;16.20;79.35
18900;BME280;9582;52.018;6.306;2022-07-29T07:49:01;101529.09;;;16.12;79.09
18900;BME280;9582;52.018;6.306;2022-07-29T07:51:27;101532.84;;;16.08;79.01
18900;BME280;9582;52.018;6.306;2022-07-29T07:53:54;101532.22;;;16.35;78.45
18900;BME280;9582;52.018;6.306;2022-07-29T07:56:22;101537.59;;;16.17;78.34
18900;BME280;9582;52.018;6.306;2022-07-29T07:58:48;101537.25;;;16.24;78.02
18900;BME280;9582;52.018;6.306;2022-07-29T08:01:15;101542.28;;;16.28;78.43
18900;BME280;9582;52.018;6.306;2022-07-29T08:03:44;101534.50;;;16.41;78.72
18900;BME280;9582;52.018;6.306;2022-07-29T08:06:10;101552.75;;;16.30;78.82
18900;BME280;9582;52.018;6.306;2022-07-29T08:08:37;101555.53;;;16.42;79.41
18900;BME280;9582;52.018;6.306;2022-07-29T08:11:03;101563.28;;;16.61;78.81
18900;BME280;9582;52.018;6.306;2022-07-29T08:13:32;101560.53;;;16.62;78.04
18900;BME280;9582;52.018;6.306;2022-07-29T08:16:00;101548.59;;;16.71;78.99
18900;BME280;9582;52.018;6.306;2022-07-29T08:18:28;101553.88;;;16.71;77.88
18900;BME280;9582;52.018;6.306;2022-07-29T08:20:55;101561.56;;;16.60;78.19
18900;BME280;9582;52.018;6.306;2022-07-29T08:23:22;101559.72;;;16.62;77.97
18900;BME280;9582;52.018;6.306;2022-07-29T08:25:49;101565.16;;;16.59;78.45
18900;BME280;9582;52.018;6.306;2022-07-29T08:28:16;101560.28;;;16.67;78.01
18900;BME280;9582;52.018;6.306;2022-07-29T08:30:43;101570.44;;;16.59;78.48
18900;BME280;9582;52.018;6.306;2022-07-29T08:33:10;101577.81;;;16.52;78.16
18900;BME280;9582;52.018;6.306;2022-07-29T08:35:38;101566.66;;;16.63;78.78
18900;BME280;9582;52.018;6.306;2022-07-29T08:38:05;101565.16;;;16.59;78.01
18900;BME280;9582;52.018;6.306;2022-07-29T08:40:31;101570.00;;;16.51;78.72
18900;BME280;9582;52.018;6.306;2022-07-29T08:42:58;101576.75;;;16.56;79.42
18900;BME280;9582;52.018;6.306;2022-07-29T08:45:25;101570.25;;;16.46;78.69
18900;BME280;9582;52.018;6.306;2022-07-29T08:47:55;101575.97;;;16.54;79.16
18900;BME280;9582;52.018;6.306;2022-07-29T08:50:21;101577.84;;;16.82;78.90
18900;BME280;9582;52.018;6.306;2022-07-29T08:52:48;101595.31;;;16.70;77.70
18900;BME280;9582;52.018;6.306;2022-07-29T08:55:16;101597.47;;;16.78;80.17
18900;BME280;9582;52.018;6.306;2022-07-29T08:57:43;101591.28;;;16.79;78.96
18900;BME280;9582;52.018;6.306;2022-07-29T09:00:11;101587.88;;;16.91;78.45
18900;BME280;9582;52.018;6.306;2022-07-29T09:02:40;101597.59;;;16.91;78.81
18900;BME280;9582;52.018;6.306;2022-07-29T09:05:09;101586.81;;;16.80;79.02
18900;BME280;9582;52.018;6.306;2022-07-29T09:07:36;101586.88;;;16.64;79.65
18900;BME280;9582;52.018;6.306;2022-07-29T09:10:06;101588.31;;;16.69;79.85
18900;BME280;9582;52.018;6.306;2022-07-29T09:12:32;101583.38;;;16.63;81.33
18900;BME280;9582;52.018;6.306;2022-07-29T09:14:59;101584.22;;;16.64;81.94
18900;BME280;9582;52.018;6.306;2022-07-29T09:17:42;101587.16;;;16.59;80.80
18900;BME280;9582;52.018;6.306;2022-07-29T09:20:12;101582.56;;;16.77;81.80
18900;BME280;9582;52.018;6.306;2022-07-29T09:22:39;101579.44;;;16.70;80.96
18900;BME280;9582;52.018;6.306;2022-07-29T09:25:06;101583.31;;;16.65;81.42
18900;BME280;9582;52.018;6.306;2022-07-29T09:27:33;101577.75;;;16.69;81.13
18900;BME280;9582;52.018;6.306;2022-07-29T09:30:03;101591.22;;;16.65;81.33
18900;BME280;9582;52.018;6.306;2022-07-29T09:32:31;101590.09;;;16.69;81.37
18900;BME280;9582;52.018;6.306;2022-07-29T09:35:19;101602.00;;;16.76;81.62
18900;BME280;9582;52.018;6.306;2022-07-29T09:37:47;101606.34;;;16.77;80.68
18900;BME280;9582;52.018;6.306;2022-07-29T09:40:16;101613.50;;;16.75;80.92
18900;BME280;9582;52.018;6.306;2022-07-29T09:42:43;101603.44;;;16.82;80.22
18900;BME280;9582;52.018;6.306;2022-07-29T09:45:10;101606.22;;;16.94;79.92
18900;BME280;9582;52.018;6.306;2022-07-29T09:47:45;101605.81;;;16.86;80.19
18900;BME280;9582;52.018;6.306;2022-07-29T09:50:14;101601.63;;;16.82;80.70
18900;BME280;9582;52.018;6.306;2022-07-29T09:52:50;101603.69;;;16.77;80.78
18900;BME280;9582;52.018;6.306;2022-07-29T09:55:18;101618.22;;;17.00;80.97
18900;BME280;9582;52.018;6.306;2022-07-29T09:57:44;101616.28;;;17.17;79.66
18900;BME280;9582;52.018;6.306;2022-07-29T10:00:13;101611.66;;;17.21;79.94
18900;BME280;9582;52.018;6.306;2022-07-29T10:02:42;101602.34;;;17.29;79.21
18900;BME280;9582;52.018;6.306;2022-07-29T10:05:17;101598.44;;;17.21;79.02
18900;BME280;9582;52.018;6.306;2022-07-29T10:07:46;101599.72;;;17.44;78.92
18900;BME280;9582;52.018;6.306;2022-07-29T10:10:20;101586.72;;;17.55;78.35
18900;BME280;9582;52.018;6.306;2022-07-29T10:12:52;101591.44;;;17.78;77.70
18900;BME280;9582;52.018;6.306;2022-07-29T10:15:21;101596.88;;;18.03;77.52
18900;BME280;9582;52.018;6.306;2022-07-29T10:17:49;101593.06;;;18.07;76.73
18900;BME280;9582;52.018;6.306;2022-07-29T10:20:15;101588.09;;;18.29;75.62
18900;BME280;9582;52.018;6.306;2022-07-29T10:22:42;101582.19;;;18.26;75.00
18900;BME280;9582;52.018;6.306;2022-07-29T10:25:09;101587.00;;;18.46;74.69
18900;BME280;9582;52.018;6.306;2022-07-29T10:27:37;101569.47;;;18.84;73.56
18900;BME280;9582;52.018;6.306;2022-07-29T10:30:06;101571.00;;;19.26;73.11
18900;BME280;9582;52.018;6.306;2022-07-29T10:32:51;101573.75;;;19.12;71.28
18900;BME280;9582;52.018;6.306;2022-07-29T10:35:38;101562.69;;;18.93;72.40
18900;BME280;9582;52.018;6.306;2022-07-29T10:38:29;101565.63;;;18.88;72.58
18900;BME280;9582;52.018;6.306;2022-07-29T10:41:19;101565.25;;;19.07;72.11
18900;BME280;9582;52.018;6.306;2022-07-29T10:43:59;101555.63;;;19.56;71.04
18900;BME280;9582;52.018;6.306;2022-07-29T10:46:27;101559.94;;;19.83;69.42
18900;BME280;9582;52.018;6.306;2022-07-29T10:49:04;101553.03;;;19.80;69.46
18900;BME280;9582;52.018;6.306;2022-07-29T10:51:59;101549.81;;;19.88;67.95
18900;BME280;9582;52.018;6.306;2022-07-29T10:54:48;101562.59;;;19.70;68.54
18900;BME280;9582;52.018;6.306;2022-07-29T10:57:18;101558.22;;;19.82;68.13
18900;BME280;9582;52.018;6.306;2022-07-29T10:59:47;101558.19;;;19.94;67.38
18900;BME280;9582;52.018;6.306;2022-07-29T11:02:43;101556.72;;;20.27;65.49
18900;BME280;9582;52.018;6.306;2022-07-29T11:05:11;101552.31;;;20.38;66.63
18900;BME280;9582;52.018;6.306;2022-07-29T11:07:40;101552.22;;;20.74;67.27
18900;BME280;9582;52.018;6.306;2022-07-29T11:10:25;101556.44;;;20.66;65.42
18900;BME280;9582;52.018;6.306;2022-07-29T11:12:52;101553.31;;;20.72;64.92
18900;BME280;9582;52.018;6.306;2022-07-29T11:15:21;101556.97;;;20.82;64.16
18900;BME280;9582;52.018;6.306;2022-07-29T11:18:08;101558.88;;;21.15;63.05
18900;BME280;9582;52.018;6.306;2022-07-29T11:20:39;101550.53;;;21.08;63.93
18900;BME280;9582;52.018;6.306;2022-07-29T11:23:21;101555.03;;;21.08;62.57
18900;BME280;9582;52.018;6.306;2022-07-29T11:26:14;101555.28;;;21.16;62.00
18900;BME280;9582;52.018;6.306;2022-07-29T11:28:59;101556.72;;;21.20;61.93
18900;BME280;9582;52.018;6.306;2022-07-29T11:31:36;101558.03;;;21.14;61.57
18900;BME280;9582;52.018;6.306;2022-07-29T11:34:23;101553.94;;;21.21;62.29
18900;BME280;9582;52.018;6.306;2022-07-29T11:37:21;101553.09;;;21.32;62.87
18900;BME280;9582;52.018;6.306;2022-07-29T11:40:08;101550.69;;;21.29;61.03
18900;BME280;9582;52.018;6.306;2022-07-29T11:42:48;101546.59;;;21.47;62.29
18900;BME280;9582;52.018;6.306;2022-07-29T11:48:03;101547.06;;;21.52;61.04
18900;BME280;9582;52.018;6.306;2022-07-29T11:50:33;101545.38;;;21.62;61.40
18900;BME280;9582;52.018;6.306;2022-07-29T11:53:01;101547.69;;;21.67;58.55
18900;BME280;9582;52.018;6.306;2022-07-29T11:55:28;101548.53;;;21.90;56.95
18900;BME280;9582;52.018;6.306;2022-07-29T11:57:57;101540.06;;;22.27;56.82
18900;BME280;9582;52.018;6.306;2022-07-29T12:00:30;101539.47;;;22.56;57.65
18900;BME280;9582;52.018;6.306;2022-07-29T12:02:58;101535.31;;;22.94;57.97
18900;BME280;9582;52.018;6.306;2022-07-29T12:05:38;101540.69;;;23.04;57.11
18900;BME280;9582;52.018;6.306;2022-07-29T12:08:06;101539.31;;;23.10;57.13
18900;BME280;9582;52.018;6.306;2022-07-29T12:10:34;101539.44;;;23.29;55.55
18900;BME280;9582;52.018;6.306;2022-07-29T12:13:00;101538.41;;;23.41;55.55
18900;BME280;9582;52.018;6.306;2022-07-29T12:15:27;101536.22;;;23.55;56.15
18900;BME280;9582;52.018;6.306;2022-07-29T12:17:53;101536.97;;;23.67;55.05
18900;BME280;9582;52.018;6.306;2022-07-29T12:20:24;101546.75;;;23.87;55.91
18900;BME280;9582;52.018;6.306;2022-07-29T12:22:52;101535.66;;;24.01;54.22
18900;BME280;9582;52.018;6.306;2022-07-29T12:25:20;101532.16;;;24.10;53.63
18900;BME280;9582;52.018;6.306;2022-07-29T12:27:47;101529.81;;;24.36;53.67
18900;BME280;9582;52.018;6.306;2022-07-29T12:30:34;101536.72;;;24.29;50.31
18900;BME280;9582;52.018;6.306;2022-07-29T12:33:01;101530.50;;;24.19;49.31
18900;BME280;9582;52.018;6.306;2022-07-29T12:35:28;101525.09;;;23.90;49.79
18900;BME280;9582;52.018;6.306;2022-07-29T12:37:56;101525.53;;;23.95;52.89
18900;BME280;9582;52.018;6.306;2022-07-29T12:40:24;101522.84;;;23.95;53.10
18900;BME280;9582;52.018;6.306;2022-07-29T12:43:06;101528.06;;;24.06;51.27
18900;BME280;9582;52.018;6.306;2022-07-29T12:45:34;101528.47;;;23.92;49.52
18900;BME280;9582;52.018;6.306;2022-07-29T12:48:01;101528.75;;;23.89;50.67
18900;BME280;9582;52.018;6.306;2022-07-29T12:50:27;101539.50;;;24.28;51.77
18900;BME280;9582;52.018;6.306;2022-07-29T12:53:08;101533.34;;;24.46;48.95
18900;BME280;9582;52.018;6.306;2022-07-29T12:55:39;101530.22;;;24.70;50.60
18900;BME280;9582;52.018;6.306;2022-07-29T12:58:06;101531.94;;;24.81;51.42
18900;BME280;9582;52.018;6.306;2022-07-29T13:00:33;101534.19;;;24.85;51.64
18900;BME280;9582;52.018;6.306;2022-07-29T13:03:00;101530.09;;;24.81;50.44
18900;BME280;9582;52.018;6.306;2022-07-29T13:05:39;101518.25;;;24.74;50.53
18900;BME280;9582;52.018;6.306;2022-07-29T13:08:14;101523.03;;;24.70;51.18
18900;BME280;9582;52.018;6.306;2022-07-29T13:10:41;101524.19;;;24.78;51.56
18900;BME280;9582;52.018;6.306;2022-07-29T13:13:09;101530.50;;;24.77;52.13
18900;BME280;9582;52.018;6.306;2022-07-29T13:15:36;101523.47;;;24.66;50.92